sensor_id;sensor_type;location;lat;lon;timestamp;P1;durP1;ratioP1;P2;durP2;ratioP2
50010;SDS011;35899;50.352;19.390;2023-02-15T00:01:10;33.50;;;16.80;;
50010;SDS011;35899;50.352;19.390;2023-02-15T00:03:39;32.20;;;15.90;;
50010;SDS011;35899;50.352;19.390;2023-02-15T00:06:07;35.30;;;16.90;;
50010;SDS011;35899;50.352;19.390;2023-02-15T00:08:35;24.20;;;13.10;;
50010;SDS011;35899;50.352;19.390;2023-02-15T00:11:06;20.60;;;11.60;;
50010;SDS011;35899;50.352;19.390;2023-02-15T00:13:35;22.80;;;13.00;;
50010;SDS011;35899;50.352;19.390;2023-02-15T00:16:04;21.40;;;12.90;;
50010;SDS011;35899;50.352;19.390;2023-02-15T00:18:33;21.00;;;12.40;;
50010;SDS011;35899;50.352;19.390;2023-02-15T00:21:05;21.40;;;12.70;;
50010;SDS011;35899;50.352;19.390;2023-02-15T00:23:36;22.10;;;12.50;;
50010;SDS011;35899;50.352;19.390;2023-02-15T00:26:11;20.20;;;11.70;;
50010;SDS011;35899;50.352;19.390;2023-02-15T00:28:40;21.40;;;12.60;;
50010;SDS011;35899;50.352;19.390;2023-02-15T00:31:10;22.80;;;12.10;;
50010;SDS011;35899;50.352;19.390;2023-02-15T00:33:39;20.20;;;11.70;;
50010;SDS011;35899;50.352;19.390;2023-02-15T00:36:08;25.20;;;12.90;;
50010;SDS011;35899;50.352;19.390;2023-02-15T00:42:21;47.80;;;21.50;;
50010;SDS011;35899;50.352;19.390;2023-02-15T00:44:49;21.30;;;13.00;;
50010;SDS011;35899;50.352;19.390;2023-02-15T00:47:17;22.50;;;13.40;;
50010;SDS011;35899;50.352;19.390;2023-02-15T00:49:44;23.90;;;13.30;;
50010;SDS011;35899;50.352;19.390;2023-02-15T00:52:12;22.00;;;13.60;;
50010;SDS011;35899;50.352;19.390;2023-02-15T00:54:40;24.10;;;13.10;;
50010;SDS011;35899;50.352;19.390;2023-02-15T00:57:08;23.70;;;14.00;;
50010;SDS011;35899;50.352;19.390;2023-02-15T00:59:36;24.50;;;14.50;;
50010;SDS011;35899;50.352;19.390;2023-02-15T01:02:03;27.10;;;15.00;;
50010;SDS011;35899;50.352;19.390;2023-02-15T01:04:31;26.10;;;15.00;;
50010;SDS011;35899;50.352;19.390;2023-02-15T01:06:59;22.40;;;13.30;;
50010;SDS011;35899;50.352;19.390;2023-02-15T01:09:27;28.30;;;16.20;;
50010;SDS011;35899;50.352;19.390;2023-02-15T01:11:56;25.70;;;14.90;;
50010;SDS011;35899;50.352;19.390;2023-02-15T01:14:26;26.10;;;14.30;;
50010;SDS011;35899;50.352;19.390;2023-02-15T01:16:54;21.80;;;13.10;;
50010;SDS011;35899;50.352;19.390;2023-02-15T01:19:22;21.50;;;13.10;;
50010;SDS011;35899;50.352;19.390;2023-02-15T01:21:50;23.80;;;13.70;;
50010;SDS011;35899;50.352;19.390;2023-02-15T01:24:17;21.40;;;13.40;;
50010;SDS011;35899;50.352;19.390;2023-02-15T01:26:46;26.40;;;14.80;;
50010;SDS011;35899;50.352;19.390;2023-02-15T01:29:13;27.50;;;14.80;;
50010;SDS011;35899;50.352;19.390;2023-02-15T01:31:41;26.80;;;15.30;;
50010;SDS011;35899;50.352;19.390;2023-02-15T01:34:09;27.90;;;15.40;;
50010;SDS011;35899;50.352;19.390;2023-02-15T01:36:38;32.00;;;17.60;;
50010;SDS011;35899;50.352;19.390;2023-02-15T01:42:21;28.70;;;15.00;;
50010;SDS011;35899;50.352;19.390;2023-02-15T01:44:51;32.00;;;17.30;;
50010;SDS011;35899;50.352;19.390;2023-02-15T01:47:23;28.70;;;17.00;;
50010;SDS011;35899;50.352;19.390;2023-02-15T01:55:57;32.40;;;18.30;;
50010;SDS011;35899;50.352;19.390;2023-02-15T01:58:27;31.50;;;17.70;;
50010;SDS011;35899;50.352;19.390;2023-02-15T02:06:33;25.60;;;15.00;;
50010;SDS011;35899;50.352;19.390;2023-02-15T02:09:03;30.70;;;16.20;;
50010;SDS011;35899;50.352;19.390;2023-02-15T02:11:31;29.90;;;16.50;;
50010;SDS011;35899;50.352;19.390;2023-02-15T02:14:00;32.60;;;18.10;;
50010;SDS011;35899;50.352;19.390;2023-02-15T02:27:37;29.20;;;16.10;;
50010;SDS011;35899;50.352;19.390;2023-02-15T02:30:20;28.40;;;16.00;;
50010;SDS011;35899;50.352;19.390;2023-02-15T02:41:07;33.00;;;17.40;;
50010;SDS011;35899;50.352;19.390;2023-02-15T02:43:49;36.70;;;18.40;;
50010;SDS011;35899;50.352;19.390;2023-02-15T02:49:09;149.30;;;47.00;;
50010;SDS011;35899;50.352;19.390;2023-02-15T02:51:37;54.30;;;23.00;;
50010;SDS011;35899;50.352;19.390;2023-02-15T02:54:05;39.10;;;20.00;;
50010;SDS011;35899;50.352;19.390;2023-02-15T02:59:12;37.50;;;19.00;;
50010;SDS011;35899;50.352;19.390;2023-02-15T03:01:48;33.40;;;18.30;;
50010;SDS011;35899;50.352;19.390;2023-02-15T03:04:22;66.20;;;25.20;;
50010;SDS011;35899;50.352;19.390;2023-02-15T03:06:56;36.60;;;18.80;;
50010;SDS011;35899;50.352;19.390;2023-02-15T03:09:33;35.80;;;17.30;;
50010;SDS011;35899;50.352;19.390;2023-02-15T03:12:05;33.10;;;17.60;;
50010;SDS011;35899;50.352;19.390;2023-02-15T03:14:34;37.20;;;18.60;;
50010;SDS011;35899;50.352;19.390;2023-02-15T03:17:05;33.60;;;18.10;;
50010;SDS011;35899;50.352;19.390;2023-02-15T03:19:35;30.30;;;17.90;;
50010;SDS011;35899;50.352;19.390;2023-02-15T03:22:06;34.50;;;18.00;;
50010;SDS011;35899;50.352;19.390;2023-02-15T03:24:43;34.80;;;18.30;;
50010;SDS011;35899;50.352;19.390;2023-02-15T03:27:15;31.50;;;17.00;;
50010;SDS011;35899;50.352;19.390;2023-02-15T03:29:50;36.40;;;19.40;;
50010;SDS011;35899;50.352;19.390;2023-02-15T03:32:23;33.70;;;18.20;;
50010;SDS011;35899;50.352;19.390;2023-02-15T03:34:53;34.50;;;18.20;;
50010;SDS011;35899;50.352;19.390;2023-02-15T03:37:57;30.20;;;16.30;;
50010;SDS011;35899;50.352;19.390;2023-02-15T03:40:26;28.80;;;15.00;;
50010;SDS011;35899;50.352;19.390;2023-02-15T03:43:00;31.60;;;16.70;;
50010;SDS011;35899;50.352;19.390;2023-02-15T03:45:33;31.30;;;16.50;;
50010;SDS011;35899;50.352;19.390;2023-02-15T03:48:06;36.00;;;19.50;;
50010;SDS011;35899;50.352;19.390;2023-02-15T03:50:35;28.90;;;16.10;;
50010;SDS011;35899;50.352;19.390;2023-02-15T03:53:06;33.60;;;17.30;;
50010;SDS011;35899;50.352;19.390;2023-02-15T03:55:38;40.80;;;20.20;;
50010;SDS011;35899;50.352;19.390;2023-02-15T03:58:06;42.10;;;20.30;;
50010;SDS011;35899;50.352;19.390;2023-02-15T04:00:35;50.40;;;21.50;;
50010;SDS011;35899;50.352;19.390;2023-02-15T04:05:47;35.00;;;16.70;;
50010;SDS011;35899;50.352;19.390;2023-02-15T04:08:14;32.70;;;16.20;;
50010;SDS011;35899;50.352;19.390;2023-02-15T04:10:42;32.00;;;17.10;;
50010;SDS011;35899;50.352;19.390;2023-02-15T04:13:10;32.00;;;16.90;;
50010;SDS011;35899;50.352;19.390;2023-02-15T04:15:38;34.00;;;17.30;;
50010;SDS011;35899;50.352;19.390;2023-02-15T04:18:06;33.80;;;17.70;;
50010;SDS011;35899;50.352;19.390;2023-02-15T04:20:34;37.30;;;18.20;;
50010;SDS011;35899;50.352;19.390;2023-02-15T04:23:05;35.80;;;18.30;;
50010;SDS011;35899;50.352;19.390;2023-02-15T04:25:33;39.80;;;19.40;;
50010;SDS011;35899;50.352;19.390;2023-02-15T04:28:01;32.50;;;16.20;;
50010;SDS011;35899;50.352;19.390;2023-02-15T04:30:29;35.40;;;17.20;;
50010;SDS011;35899;50.352;19.390;2023-02-15T04:32:57;31.00;;;16.10;;
50010;SDS011;35899;50.352;19.390;2023-02-15T04:35:25;36.30;;;18.70;;
50010;SDS011;35899;50.352;19.390;2023-02-15T04:37:52;38.40;;;18.50;;
50010;SDS011;35899;50.352;19.390;2023-02-15T04:40:20;37.80;;;18.00;;
50010;SDS011;35899;50.352;19.390;2023-02-15T04:42:48;35.80;;;17.90;;
50010;SDS011;35899;50.352;19.390;2023-02-15T04:45:16;38.90;;;19.70;;
50010;SDS011;35899;50.352;19.390;2023-02-15T04:47:44;37.00;;;17.20;;
50010;SDS011;35899;50.352;19.390;2023-02-15T04:50:12;36.50;;;18.30;;
50010;SDS011;35899;50.352;19.390;2023-02-15T04:52:40;37.50;;;17.00;;
50010;SDS011;35899;50.352;19.390;2023-02-15T04:55:08;32.30;;;16.00;;
50010;SDS011;35899;50.352;19.390;2023-02-15T04:57:36;45.90;;;20.90;;
50010;SDS011;35899;50.352;19.390;2023-02-15T05:00:04;43.30;;;18.80;;
50010;SDS011;35899;50.352;19.390;2023-02-15T05:02:33;35.50;;;18.70;;
50010;SDS011;35899;50.352;19.390;2023-02-15T05:05:01;36.30;;;18.30;;
50010;SDS011;35899;50.352;19.390;2023-02-15T05:07:29;42.20;;;18.50;;
50010;SDS011;35899;50.352;19.390;2023-02-15T05:09:57;38.70;;;18.70;;
50010;SDS011;35899;50.352;19.390;2023-02-15T05:12:24;45.10;;;20.50;;
50010;SDS011;35899;50.352;19.390;2023-02-15T05:14:52;36.20;;;18.20;;
50010;SDS011;35899;50.352;19.390;2023-02-15T05:17:20;35.90;;;18.70;;
50010;SDS011;35899;50.352;19.390;2023-02-15T05:19:48;29.60;;;15.60;;
50010;SDS011;35899;50.352;19.390;2023-02-15T05:22:16;37.10;;;17.80;;
50010;SDS011;35899;50.352;19.390;2023-02-15T05:24:44;33.00;;;16.80;;
50010;SDS011;35899;50.352;19.390;2023-02-15T05:27:12;32.60;;;15.00;;
50010;SDS011;35899;50.352;19.390;2023-02-15T05:29:40;35.00;;;17.50;;
50010;SDS011;35899;50.352;19.390;2023-02-15T05:32:08;33.10;;;16.20;;
50010;SDS011;35899;50.352;19.390;2023-02-15T05:34:36;34.10;;;17.30;;
50010;SDS011;35899;50.352;19.390;2023-02-15T05:37:04;33.00;;;16.20;;
50010;SDS011;35899;50.352;19.390;2023-02-15T05:39:32;30.90;;;16.20;;
50010;SDS011;35899;50.352;19.390;2023-02-15T05:42:00;39.30;;;18.50;;
50010;SDS011;35899;50.352;19.390;2023-02-15T05:44:28;36.40;;;16.70;;
50010;SDS011;35899;50.352;19.390;2023-02-15T05:46:56;34.80;;;17.20;;
50010;SDS011;35899;50.352;19.390;2023-02-15T05:49:24;32.80;;;16.90;;
50010;SDS011;35899;50.352;19.390;2023-02-15T05:51:52;35.10;;;16.20;;
50010;SDS011;35899;50.352;19.390;2023-02-15T05:54:20;34.90;;;16.80;;
50010;SDS011;35899;50.352;19.390;2023-02-15T05:56:47;165.80;;;50.70;;
50010;SDS011;35899;50.352;19.390;2023-02-15T05:59:15;47.30;;;20.90;;
50010;SDS011;35899;50.352;19.390;2023-02-15T06:01:43;43.40;;;20.90;;
50010;SDS011;35899;50.352;19.390;2023-02-15T06:04:12;41.90;;;18.70;;
50010;SDS011;35899;50.352;19.390;2023-02-15T06:06:40;38.40;;;17.70;;
50010;SDS011;35899;50.352;19.390;2023-02-15T06:09:09;40.40;;;18.90;;
50010;SDS011;35899;50.352;19.390;2023-02-15T06:11:38;38.80;;;18.80;;
50010;SDS011;35899;50.352;19.390;2023-02-15T06:14:06;37.40;;;18.70;;
50010;SDS011;35899;50.352;19.390;2023-02-15T06:16:34;34.00;;;16.90;;
50010;SDS011;35899;50.352;19.390;2023-02-15T06:19:02;37.20;;;18.90;;
50010;SDS011;35899;50.352;19.390;2023-02-15T06:21:30;42.30;;;19.60;;
50010;SDS011;35899;50.352;19.390;2023-02-15T06:23:58;48.20;;;20.00;;
50010;SDS011;35899;50.352;19.390;2023-02-15T06:26:26;45.30;;;20.90;;
50010;SDS011;35899;50.352;19.390;2023-02-15T06:28:54;45.40;;;20.00;;
50010;SDS011;35899;50.352;19.390;2023-02-15T06:31:22;46.80;;;20.30;;
50010;SDS011;35899;50.352;19.390;2023-02-15T06:33:50;45.40;;;20.00;;
50010;SDS011;35899;50.352;19.390;2023-02-15T06:36:19;38.80;;;18.50;;
50010;SDS011;35899;50.352;19.390;2023-02-15T06:38:47;37.50;;;18.90;;
50010;SDS011;35899;50.352;19.390;2023-02-15T06:41:14;44.50;;;20.90;;
50010;SDS011;35899;50.352;19.390;2023-02-15T06:43:42;45.10;;;21.50;;
50010;SDS011;35899;50.352;19.390;2023-02-15T06:46:10;42.20;;;19.80;;
50010;SDS011;35899;50.352;19.390;2023-02-15T06:48:38;48.30;;;21.70;;
50010;SDS011;35899;50.352;19.390;2023-02-15T06:51:06;42.30;;;19.90;;
50010;SDS011;35899;50.352;19.390;2023-02-15T06:53:34;41.00;;;20.40;;
50010;SDS011;35899;50.352;19.390;2023-02-15T06:56:03;42.80;;;20.30;;
50010;SDS011;35899;50.352;19.390;2023-02-15T06:58:32;48.40;;;22.70;;
50010;SDS011;35899;50.352;19.390;2023-02-15T07:01:00;40.20;;;19.30;;
50010;SDS011;35899;50.352;19.390;2023-02-15T07:03:29;43.20;;;20.20;;
50010;SDS011;35899;50.352;19.390;2023-02-15T07:05:58;42.70;;;19.30;;
50010;SDS011;35899;50.352;19.390;2023-02-15T07:08:28;47.40;;;21.30;;
50010;SDS011;35899;50.352;19.390;2023-02-15T07:10:56;41.00;;;20.10;;
50010;SDS011;35899;50.352;19.390;2023-02-15T07:13:24;47.00;;;21.70;;
50010;SDS011;35899;50.352;19.390;2023-02-15T07:15:52;41.50;;;18.80;;
50010;SDS011;35899;50.352;19.390;2023-02-15T07:18:20;45.50;;;22.10;;
50010;SDS011;35899;50.352;19.390;2023-02-15T07:20:48;47.90;;;22.60;;
50010;SDS011;35899;50.352;19.390;2023-02-15T07:23:16;43.90;;;20.60;;
50010;SDS011;35899;50.352;19.390;2023-02-15T07:25:44;53.50;;;24.80;;
50010;SDS011;35899;50.352;19.390;2023-02-15T07:28:12;45.60;;;21.80;;
50010;SDS011;35899;50.352;19.390;2023-02-15T07:30:40;45.00;;;22.10;;
50010;SDS011;35899;50.352;19.390;2023-02-15T07:33:08;44.30;;;21.70;;
50010;SDS011;35899;50.352;19.390;2023-02-15T07:35:36;43.00;;;21.10;;
50010;SDS011;35899;50.352;19.390;2023-02-15T07:38:03;46.10;;;21.40;;
50010;SDS011;35899;50.352;19.390;2023-02-15T07:40:31;43.60;;;20.60;;
50010;SDS011;35899;50.352;19.390;2023-02-15T07:42:59;48.90;;;22.10;;
50010;SDS011;35899;50.352;19.390;2023-02-15T07:45:27;46.20;;;21.70;;
50010;SDS011;35899;50.352;19.390;2023-02-15T07:47:55;40.10;;;18.70;;
50010;SDS011;35899;50.352;19.390;2023-02-15T07:50:23;41.80;;;20.10;;
50010;SDS011;35899;50.352;19.390;2023-02-15T07:52:51;42.00;;;19.70;;
50010;SDS011;35899;50.352;19.390;2023-02-15T07:55:19;49.40;;;21.90;;
50010;SDS011;35899;50.352;19.390;2023-02-15T07:57:48;44.50;;;20.30;;
50010;SDS011;35899;50.352;19.390;2023-02-15T08:00:17;41.80;;;19.30;;
50010;SDS011;35899;50.352;19.390;2023-02-15T08:02:48;50.10;;;22.70;;
50010;SDS011;35899;50.352;19.390;2023-02-15T08:05:17;50.10;;;23.90;;
50010;SDS011;35899;50.352;19.390;2023-02-15T08:07:45;46.20;;;22.70;;
50010;SDS011;35899;50.352;19.390;2023-02-15T08:10:13;46.90;;;23.00;;
50010;SDS011;35899;50.352;19.390;2023-02-15T08:12:41;47.40;;;22.60;;
50010;SDS011;35899;50.352;19.390;2023-02-15T08:15:08;45.50;;;21.80;;
50010;SDS011;35899;50.352;19.390;2023-02-15T08:17:36;54.30;;;23.70;;
50010;SDS011;35899;50.352;19.390;2023-02-15T08:20:05;51.90;;;25.00;;
50010;SDS011;35899;50.352;19.390;2023-02-15T08:22:33;47.30;;;21.90;;
50010;SDS011;35899;50.352;19.390;2023-02-15T08:25:01;52.80;;;23.20;;
50010;SDS011;35899;50.352;19.390;2023-02-15T08:27:29;48.70;;;22.50;;
50010;SDS011;35899;50.352;19.390;2023-02-15T08:29:56;49.80;;;23.60;;
50010;SDS011;35899;50.352;19.390;2023-02-15T08:32:24;51.90;;;23.60;;
50010;SDS011;35899;50.352;19.390;2023-02-15T08:34:53;51.20;;;22.70;;
50010;SDS011;35899;50.352;19.390;2023-02-15T08:37:20;49.40;;;23.90;;
50010;SDS011;35899;50.352;19.390;2023-02-15T08:39:49;51.00;;;23.10;;
50010;SDS011;35899;50.352;19.390;2023-02-15T08:42:17;56.10;;;25.50;;
50010;SDS011;35899;50.352;19.390;2023-02-15T08:44:45;54.20;;;26.20;;
50010;SDS011;35899;50.352;19.390;2023-02-15T08:47:13;46.70;;;22.10;;
50010;SDS011;35899;50.352;19.390;2023-02-15T08:49:41;46.70;;;23.80;;
50010;SDS011;35899;50.352;19.390;2023-02-15T08:52:09;43.80;;;22.10;;
50010;SDS011;35899;50.352;19.390;2023-02-15T08:54:37;48.00;;;23.50;;
50010;SDS011;35899;50.352;19.390;2023-02-15T08:57:05;47.10;;;22.90;;
50010;SDS011;35899;50.352;19.390;2023-02-15T08:59:33;52.80;;;24.10;;
50010;SDS011;35899;50.352;19.390;2023-02-15T09:02:01;46.60;;;22.20;;
50010;SDS011;35899;50.352;19.390;2023-02-15T09:04:29;44.10;;;22.10;;
50010;SDS011;35899;50.352;19.390;2023-02-15T09:06:57;52.80;;;26.00;;
50010;SDS011;35899;50.352;19.390;2023-02-15T09:09:25;53.70;;;26.40;;
50010;SDS011;35899;50.352;19.390;2023-02-15T09:11:53;52.50;;;25.20;;
50010;SDS011;35899;50.352;19.390;2023-02-15T09:14:26;50.00;;;25.30;;
50010;SDS011;35899;50.352;19.390;2023-02-15T09:16:55;47.30;;;23.70;;
50010;SDS011;35899;50.352;19.390;2023-02-15T09:19:24;45.50;;;22.30;;
50010;SDS011;35899;50.352;19.390;2023-02-15T09:21:52;41.10;;;20.90;;
50010;SDS011;35899;50.352;19.390;2023-02-15T09:24:21;44.80;;;22.40;;
50010;SDS011;35899;50.352;19.390;2023-02-15T09:26:48;43.40;;;22.90;;
50010;SDS011;35899;50.352;19.390;2023-02-15T09:29:17;42.30;;;21.40;;
50010;SDS011;35899;50.352;19.390;2023-02-15T09:31:47;41.40;;;20.70;;
50010;SDS011;35899;50.352;19.390;2023-02-15T09:34:17;39.70;;;21.60;;
50010;SDS011;35899;50.352;19.390;2023-02-15T09:36:48;40.50;;;21.70;;
50010;SDS011;35899;50.352;19.390;2023-02-15T09:39:20;42.50;;;22.10;;
50010;SDS011;35899;50.352;19.390;2023-02-15T09:47:37;37.50;;;20.50;;
50010;SDS011;35899;50.352;19.390;2023-02-15T09:55:57;37.10;;;20.70;;
50010;SDS011;35899;50.352;19.390;2023-02-15T10:06:31;33.30;;;20.60;;
50010;SDS011;35899;50.352;19.390;2023-02-15T10:11:51;31.20;;;19.90;;
50010;SDS011;35899;50.352;19.390;2023-02-15T10:28:23;21.80;;;17.40;;
50010;SDS011;35899;50.352;19.390;2023-02-15T10:31:03;23.40;;;16.00;;
50010;SDS011;35899;50.352;19.390;2023-02-15T10:37:00;24.90;;;17.10;;
50010;SDS011;35899;50.352;19.390;2023-02-15T10:58:31;22.80;;;15.80;;
50010;SDS011;35899;50.352;19.390;2023-02-15T11:07:08;20.10;;;16.00;;
50010;SDS011;35899;50.352;19.390;2023-02-15T11:09:44;19.20;;;15.50;;
50010;SDS011;35899;50.352;19.390;2023-02-15T11:12:33;19.90;;;15.90;;
50010;SDS011;35899;50.352;19.390;2023-02-15T11:15:03;22.10;;;18.40;;
50010;SDS011;35899;50.352;19.390;2023-02-15T11:17:45;20.60;;;16.00;;
50010;SDS011;35899;50.352;19.390;2023-02-15T11:20:32;20.80;;;16.30;;
50010;SDS011;35899;50.352;19.390;2023-02-15T11:23:13;20.60;;;17.70;;
50010;SDS011;35899;50.352;19.390;2023-02-15T11:25:44;21.10;;;17.50;;
50010;SDS011;35899;50.352;19.390;2023-02-15T11:28:38;20.90;;;16.90;;
50010;SDS011;35899;50.352;19.390;2023-02-15T11:31:15;19.90;;;17.30;;
50010;SDS011;35899;50.352;19.390;2023-02-15T11:33:47;22.30;;;17.60;;
50010;SDS011;35899;50.352;19.390;2023-02-15T11:36:22;23.20;;;16.70;;
50010;SDS011;35899;50.352;19.390;2023-02-15T11:39:16;21.80;;;17.90;;
50010;SDS011;35899;50.352;19.390;2023-02-15T11:41:47;19.90;;;17.40;;
50010;SDS011;35899;50.352;19.390;2023-02-15T11:46:50;23.80;;;17.40;;
50010;SDS011;35899;50.352;19.390;2023-02-15T11:49:22;20.10;;;17.80;;
50010;SDS011;35899;50.352;19.390;2023-02-15T11:51:51;19.90;;;17.70;;
50010;SDS011;35899;50.352;19.390;2023-02-15T11:54:21;20.20;;;18.20;;
50010;SDS011;35899;50.352;19.390;2023-02-15T11:56:56;20.50;;;17.10;;
50010;SDS011;35899;50.352;19.390;2023-02-15T11:59:32;20.40;;;18.30;;
50010;SDS011;35899;50.352;19.390;2023-02-15T12:02:13;21.00;;;18.20;;
50010;SDS011;35899;50.352;19.390;2023-02-15T12:04:47;20.50;;;17.30;;
50010;SDS011;35899;50.352;19.390;2023-02-15T12:07:24;25.30;;;19.30;;
50010;SDS011;35899;50.352;19.390;2023-02-15T12:12:48;18.00;;;16.10;;
50010;SDS011;35899;50.352;19.390;2023-02-15T12:15:16;18.50;;;16.50;;
50010;SDS011;35899;50.352;19.390;2023-02-15T12:17:58;19.90;;;17.80;;
50010;SDS011;35899;50.352;19.390;2023-02-15T12:20:30;20.30;;;18.00;;
50010;SDS011;35899;50.352;19.390;2023-02-15T12:23:04;19.60;;;17.50;;
50010;SDS011;35899;50.352;19.390;2023-02-15T12:25:50;19.00;;;16.70;;
50010;SDS011;35899;50.352;19.390;2023-02-15T12:28:33;17.70;;;15.80;;
50010;SDS011;35899;50.352;19.390;2023-02-15T12:31:21;20.60;;;17.10;;
50010;SDS011;35899;50.352;19.390;2023-02-15T12:33:55;20.00;;;17.70;;
50010;SDS011;35899;50.352;19.390;2023-02-15T12:36:25;17.10;;;15.40;;
50010;SDS011;35899;50.352;19.390;2023-02-15T12:39:05;17.00;;;15.20;;
50010;SDS011;35899;50.352;19.390;2023-02-15T12:41:45;23.60;;;21.20;;
50010;SDS011;35899;50.352;19.390;2023-02-15T12:44:24;13.40;;;12.10;;
50010;SDS011;35899;50.352;19.390;2023-02-15T12:47:01;15.10;;;13.60;;
50010;SDS011;35899;50.352;19.390;2023-02-15T12:49:32;13.40;;;12.10;;
50010;SDS011;35899;50.352;19.390;2023-02-15T12:52:05;13.80;;;12.40;;
50010;SDS011;35899;50.352;19.390;2023-02-15T12:54:45;13.70;;;12.30;;
50010;SDS011;35899;50.352;19.390;2023-02-15T12:59:52;13.20;;;11.90;;
50010;SDS011;35899;50.352;19.390;2023-02-15T13:02:25;13.90;;;12.50;;
50010;SDS011;35899;50.352;19.390;2023-02-15T13:04:55;13.60;;;12.30;;
50010;SDS011;35899;50.352;19.390;2023-02-15T13:07:28;14.70;;;12.80;;
50010;SDS011;35899;50.352;19.390;2023-02-15T13:09:58;14.00;;;11.80;;
50010;SDS011;35899;50.352;19.390;2023-02-15T13:12:27;16.30;;;12.60;;
50010;SDS011;35899;50.352;19.390;2023-02-15T13:14:58;14.60;;;13.00;;
50010;SDS011;35899;50.352;19.390;2023-02-15T13:17:27;16.30;;;12.80;;
50010;SDS011;35899;50.352;19.390;2023-02-15T13:20:00;15.80;;;12.40;;
50010;SDS011;35899;50.352;19.390;2023-02-15T13:22:39;16.00;;;12.50;;
50010;SDS011;35899;50.352;19.390;2023-02-15T13:25:24;16.80;;;12.80;;
50010;SDS011;35899;50.352;19.390;2023-02-15T13:27:55;19.70;;;13.60;;
50010;SDS011;35899;50.352;19.390;2023-02-15T13:30:35;19.70;;;13.10;;
50010;SDS011;35899;50.352;19.390;2023-02-15T13:33:06;20.50;;;13.60;;
50010;SDS011;35899;50.352;19.390;2023-02-15T13:35:43;18.20;;;12.50;;
50010;SDS011;35899;50.352;19.390;2023-02-15T13:41:27;18.00;;;12.20;;
50010;SDS011;35899;50.352;19.390;2023-02-15T13:44:04;21.10;;;12.60;;
50010;SDS011;35899;50.352;19.390;2023-02-15T13:49:17;22.90;;;13.30;;
50010;SDS011;35899;50.352;19.390;2023-02-15T13:52:04;23.00;;;13.40;;
50010;SDS011;35899;50.352;19.390;2023-02-15T13:54:46;20.90;;;13.10;;
50010;SDS011;35899;50.352;19.390;2023-02-15T13:57:28;21.60;;;14.00;;
50010;SDS011;35899;50.352;19.390;2023-02-15T14:03:12;21.00;;;12.80;;
50010;SDS011;35899;50.352;19.390;2023-02-15T14:11:36;23.80;;;13.90;;
50010;SDS011;35899;50.352;19.390;2023-02-15T14:22:14;18.60;;;11.10;;
50010;SDS011;35899;50.352;19.390;2023-02-15T14:27:50;25.00;;;13.10;;
50010;SDS011;35899;50.352;19.390;2023-02-15T14:30:29;23.60;;;13.30;;
50010;SDS011;35899;50.352;19.390;2023-02-15T14:35:50;32.90;;;19.90;;
50010;SDS011;35899;50.352;19.390;2023-02-15T14:41:18;21.50;;;13.30;;
50010;SDS011;35899;50.352;19.390;2023-02-15T14:43:59;22.40;;;12.80;;
50010;SDS011;35899;50.352;19.390;2023-02-15T14:56:45;35.80;;;18.10;;
50010;SDS011;35899;50.352;19.390;2023-02-15T14:59:15;43.50;;;22.30;;
50010;SDS011;35899;50.352;19.390;2023-02-15T15:15:54;115.70;;;63.80;;
50010;SDS011;35899;50.352;19.390;2023-02-15T15:43:44;39.20;;;20.70;;
50010;SDS011;35899;50.352;19.390;2023-02-15T15:48:59;43.80;;;20.70;;
50010;SDS011;35899;50.352;19.390;2023-02-15T15:51:30;36.30;;;19.00;;
50010;SDS011;35899;50.352;19.390;2023-02-15T15:54:00;37.70;;;19.50;;
50010;SDS011;35899;50.352;19.390;2023-02-15T15:56:33;36.90;;;19.50;;
50010;SDS011;35899;50.352;19.390;2023-02-15T15:59:05;38.30;;;19.50;;
50010;SDS011;35899;50.352;19.390;2023-02-15T16:01:37;41.30;;;20.70;;
50010;SDS011;35899;50.352;19.390;2023-02-15T16:04:10;38.00;;;19.80;;
50010;SDS011;35899;50.352;19.390;2023-02-15T16:06:40;42.60;;;19.90;;
50010;SDS011;35899;50.352;19.390;2023-02-15T16:09:09;43.20;;;20.60;;
50010;SDS011;35899;50.352;19.390;2023-02-15T16:11:43;40.60;;;19.80;;
50010;SDS011;35899;50.352;19.390;2023-02-15T16:14:14;38.50;;;19.70;;
50010;SDS011;35899;50.352;19.390;2023-02-15T16:17:07;43.80;;;20.60;;
50010;SDS011;35899;50.352;19.390;2023-02-15T16:19:42;47.30;;;21.90;;
50010;SDS011;35899;50.352;19.390;2023-02-15T16:22:15;57.90;;;26.00;;
50010;SDS011;35899;50.352;19.390;2023-02-15T16:35:36;53.70;;;25.50;;
50010;SDS011;35899;50.352;19.390;2023-02-15T16:38:10;55.20;;;26.60;;
50010;SDS011;35899;50.352;19.390;2023-02-15T16:40:40;57.70;;;27.50;;
50010;SDS011;35899;50.352;19.390;2023-02-15T16:43:15;54.30;;;26.80;;
50010;SDS011;35899;50.352;19.390;2023-02-15T16:45:47;58.00;;;28.40;;
50010;SDS011;35899;50.352;19.390;2023-02-15T16:48:23;88.00;;;38.30;;
50010;SDS011;35899;50.352;19.390;2023-02-15T16:50:54;142.80;;;56.90;;
50010;SDS011;35899;50.352;19.390;2023-02-15T16:53:27;102.10;;;43.60;;
50010;SDS011;35899;50.352;19.390;2023-02-15T16:55:59;105.00;;;41.50;;
50010;SDS011;35899;50.352;19.390;2023-02-15T16:58:39;72.00;;;31.60;;
50010;SDS011;35899;50.352;19.390;2023-02-15T17:01:11;65.90;;;28.40;;
50010;SDS011;35899;50.352;19.390;2023-02-15T17:03:42;64.20;;;28.70;;
50010;SDS011;35899;50.352;19.390;2023-02-15T17:06:26;104.10;;;44.80;;
50010;SDS011;35899;50.352;19.390;2023-02-15T17:09:04;59.70;;;26.70;;
50010;SDS011;35899;50.352;19.390;2023-02-15T17:11:42;51.90;;;23.50;;
50010;SDS011;35899;50.352;19.390;2023-02-15T17:14:11;64.40;;;28.40;;
50010;SDS011;35899;50.352;19.390;2023-02-15T17:16:45;99.60;;;42.50;;
50010;SDS011;35899;50.352;19.390;2023-02-15T17:19:18;78.00;;;36.00;;
50010;SDS011;35899;50.352;19.390;2023-02-15T17:27:18;59.70;;;28.20;;
50010;SDS011;35899;50.352;19.390;2023-02-15T17:29:56;64.40;;;27.50;;
50010;SDS011;35899;50.352;19.390;2023-02-15T17:32:31;78.90;;;30.20;;
50010;SDS011;35899;50.352;19.390;2023-02-15T17:37:47;293.40;;;79.40;;
50010;SDS011;35899;50.352;19.390;2023-02-15T17:40:26;132.00;;;44.00;;
50010;SDS011;35899;50.352;19.390;2023-02-15T17:42:56;284.30;;;82.00;;
50010;SDS011;35899;50.352;19.390;2023-02-15T17:45:25;427.80;;;116.70;;
50010;SDS011;35899;50.352;19.390;2023-02-15T17:48:05;284.50;;;84.00;;
50010;SDS011;35899;50.352;19.390;2023-02-15T17:50:33;271.30;;;79.10;;
50010;SDS011;35899;50.352;19.390;2023-02-15T17:53:04;428.80;;;125.50;;
50010;SDS011;35899;50.352;19.390;2023-02-15T17:55:35;535.20;;;159.50;;
50010;SDS011;35899;50.352;19.390;2023-02-15T17:58:07;291.80;;;84.40;;
50010;SDS011;35899;50.352;19.390;2023-02-15T18:01:03;150.00;;;49.70;;
50010;SDS011;35899;50.352;19.390;2023-02-15T18:03:42;236.60;;;73.90;;
50010;SDS011;35899;50.352;19.390;2023-02-15T18:06:13;247.30;;;73.80;;
50010;SDS011;35899;50.352;19.390;2023-02-15T18:08:41;208.30;;;62.20;;
50010;SDS011;35899;50.352;19.390;2023-02-15T18:11:09;100.90;;;39.10;;
50010;SDS011;35899;50.352;19.390;2023-02-15T18:13:38;74.30;;;32.10;;